sensor_id;sensor_type;location;lat;lon;timestamp;temperature;humidity
61351;DHT22;47119;49.130;9.218;2022-10-16T00:02:13;16.94;87.02
61351;DHT22;47119;49.130;9.218;2022-10-16T00:04:41;16.92;87.26
61351;DHT22;47119;49.130;9.218;2022-10-16T00:07:09;16.94;87.07
61351;DHT22;47119;49.130;9.218;2022-10-16T00:09:36;16.95;87.37
61351;DHT22;47119;49.130;9.218;2022-10-16T00:12:03;16.92;87.10
61351;DHT22;47119;49.130;9.218;2022-10-16T00:14:32;16.94;87.21
61351;DHT22;47119;49.130;9.218;2022-10-16T00:16:59;16.96;87.38
61351;DHT22;47119;49.130;9.218;2022-10-16T00:19:30;16.94;87.05
61351;DHT22;47119;49.130;9.218;2022-10-16T00:22:01;16.91;87.10
61351;DHT22;47119;49.130;9.218;2022-10-16T00:24:46;16.92;87.19
61351;DHT22;47119;49.130;9.218;2022-10-16T00:27:15;16.94;87.09
61351;DHT22;47119;49.130;9.218;2022-10-16T00:29:43;16.92;87.09
61351;DHT22;47119;49.130;9.218;2022-10-16T00:32:12;16.92;86.71
61351;DHT22;47119;49.130;9.218;2022-10-16T00:34:43;16.92;86.91
61351;DHT22;47119;49.130;9.218;2022-10-16T00:37:10;16.94;86.91
61351;DHT22;47119;49.130;9.218;2022-10-16T00:39:39;16.92;86.67
61351;DHT22;47119;49.130;9.218;2022-10-16T00:42:14;16.94;86.96
61351;DHT22;47119;49.130;9.218;2022-10-16T00:44:47;16.91;86.82
61351;DHT22;47119;49.130;9.218;2022-10-16T00:47:21;16.94;86.86
61351;DHT22;47119;49.130;9.218;2022-10-16T00:49:57;16.92;87.08
61351;DHT22;47119;49.130;9.218;2022-10-16T00:52:27;16.92;87.06
61351;DHT22;47119;49.130;9.218;2022-10-16T00:54:55;16.92;87.15
61351;DHT22;47119;49.130;9.218;2022-10-16T00:57:24;16.91;87.06
61351;DHT22;47119;49.130;9.218;2022-10-16T00:59:53;16.94;87.17
61351;DHT22;47119;49.130;9.218;2022-10-16T01:02:20;16.92;86.91
61351;DHT22;47119;49.130;9.218;2022-10-16T01:04:49;16.92;87.30
61351;DHT22;47119;49.130;9.218;2022-10-16T01:07:34;16.94;86.78
61351;DHT22;47119;49.130;9.218;2022-10-16T01:10:17;16.92;86.85
61351;DHT22;47119;49.130;9.218;2022-10-16T01:12:58;16.94;86.93
61351;DHT22;47119;49.130;9.218;2022-10-16T01:15:30;16.94;86.82
61351;DHT22;47119;49.130;9.218;2022-10-16T01:18:01;16.91;87.01
61351;DHT22;47119;49.130;9.218;2022-10-16T01:20:35;16.95;86.90
61351;DHT22;47119;49.130;9.218;2022-10-16T01:23:16;16.91;87.05
61351;DHT22;47119;49.130;9.218;2022-10-16T01:26:09;16.94;86.66
61351;DHT22;47119;49.130;9.218;2022-10-16T01:28:49;16.91;86.80
61351;DHT22;47119;49.130;9.218;2022-10-16T01:31:24;16.92;86.90
61351;DHT22;47119;49.130;9.218;2022-10-16T01:34:00;16.91;86.59
61351;DHT22;47119;49.130;9.218;2022-10-16T01:36:38;16.94;86.56
61351;DHT22;47119;49.130;9.218;2022-10-16T01:39:10;16.91;86.76
61351;DHT22;47119;49.130;9.218;2022-10-16T01:41:41;16.92;86.28
61351;DHT22;47119;49.130;9.218;2022-10-16T01:44:18;16.94;86.59
61351;DHT22;47119;49.130;9.218;2022-10-16T01:46:52;16.92;86.91
61351;DHT22;47119;49.130;9.218;2022-10-16T01:49:25;16.91;86.41
61351;DHT22;47119;49.130;9.218;2022-10-16T01:51:58;16.92;86.59
61351;DHT22;47119;49.130;9.218;2022-10-16T01:54:28;16.89;86.79
61351;DHT22;47119;49.130;9.218;2022-10-16T01:57:02;16.91;86.62
61351;DHT22;47119;49.130;9.218;2022-10-16T01:59:40;16.92;86.70
61351;DHT22;47119;49.130;9.218;2022-10-16T02:02:12;16.94;86.61
61351;DHT22;47119;49.130;9.218;2022-10-16T02:04:45;16.94;86.81
61351;DHT22;47119;49.130;9.218;2022-10-16T02:07:14;16.94;86.55
61351;DHT22;47119;49.130;9.218;2022-10-16T02:09:44;16.92;86.23
61351;DHT22;47119;49.130;9.218;2022-10-16T02:12:19;16.94;86.36
61351;DHT22;47119;49.130;9.218;2022-10-16T02:14:53;16.94;86.55
61351;DHT22;47119;49.130;9.218;2022-10-16T02:17:21;16.94;86.79
61351;DHT22;47119;49.130;9.218;2022-10-16T02:19:50;16.92;86.77
61351;DHT22;47119;49.130;9.218;2022-10-16T02:22:24;16.92;86.53
61351;DHT22;47119;49.130;9.218;2022-10-16T02:24:57;16.92;86.56
61351;DHT22;47119;49.130;9.218;2022-10-16T02:27:33;16.94;86.57
61351;DHT22;47119;49.130;9.218;2022-10-16T02:30:10;16.94;86.75
61351;DHT22;47119;49.130;9.218;2022-10-16T02:32:43;16.94;86.80
61351;DHT22;47119;49.130;9.218;2022-10-16T02:35:13;16.91;86.49
61351;DHT22;47119;49.130;9.218;2022-10-16T02:37:42;16.98;86.79
61351;DHT22;47119;49.130;9.218;2022-10-16T02:40:13;16.91;86.77
61351;DHT22;47119;49.130;9.218;2022-10-16T02:42:43;16.95;86.50
61351;DHT22;47119;49.130;9.218;2022-10-16T02:45:14;16.94;86.70
61351;DHT22;47119;49.130;9.218;2022-10-16T02:47:43;16.92;86.78
61351;DHT22;47119;49.130;9.218;2022-10-16T02:50:11;16.95;86.30
61351;DHT22;47119;49.130;9.218;2022-10-16T02:52:38;16.94;86.65
61351;DHT22;47119;49.130;9.218;2022-10-16T02:55:08;16.95;86.44
61351;DHT22;47119;49.130;9.218;2022-10-16T02:57:35;16.95;86.62
61351;DHT22;47119;49.130;9.218;2022-10-16T03:00:06;16.95;86.35
61351;DHT22;47119;49.130;9.218;2022-10-16T03:02:35;16.96;86.19
61351;DHT22;47119;49.130;9.218;2022-10-16T03:05:05;16.96;86.50
61351;DHT22;47119;49.130;9.218;2022-10-16T03:07:33;16.95;86.65
61351;DHT22;47119;49.130;9.218;2022-10-16T03:10:05;16.92;86.98
61351;DHT22;47119;49.130;9.218;2022-10-16T03:12:36;16.94;86.74
61351;DHT22;47119;49.130;9.218;2022-10-16T03:15:04;16.96;86.96
61351;DHT22;47119;49.130;9.218;2022-10-16T03:17:32;16.95;86.69
61351;DHT22;47119;49.130;9.218;2022-10-16T03:20:05;16.95;86.46
61351;DHT22;47119;49.130;9.218;2022-10-16T03:22:35;16.96;86.65
61351;DHT22;47119;49.130;9.218;2022-10-16T03:25:02;16.94;86.55
61351;DHT22;47119;49.130;9.218;2022-10-16T03:27:30;16.99;86.30
61351;DHT22;47119;49.130;9.218;2022-10-16T03:29:59;16.96;86.54
61351;DHT22;47119;49.130;9.218;2022-10-16T03:32:26;16.99;86.44
61351;DHT22;47119;49.130;9.218;2022-10-16T03:34:54;17.01;86.30
61351;DHT22;47119;49.130;9.218;2022-10-16T03:37:23;16.98;86.35
61351;DHT22;47119;49.130;9.218;2022-10-16T03:39:51;16.99;86.30
61351;DHT22;47119;49.130;9.218;2022-10-16T03:42:21;16.98;86.51
61351;DHT22;47119;49.130;9.218;2022-10-16T03:44:53;16.98;86.10
61351;DHT22;47119;49.130;9.218;2022-10-16T03:47:20;16.98;86.60
61351;DHT22;47119;49.130;9.218;2022-10-16T03:49:51;16.96;86.40
61351;DHT22;47119;49.130;9.218;2022-10-16T03:52:18;16.98;86.46
61351;DHT22;47119;49.130;9.218;2022-10-16T03:54:46;17.01;86.22
61351;DHT22;47119;49.130;9.218;2022-10-16T03:57:13;17.02;86.04
61351;DHT22;47119;49.130;9.218;2022-10-16T03:59:43;17.01;86.36
61351;DHT22;47119;49.130;9.218;2022-10-16T04:02:10;16.99;86.27
61351;DHT22;47119;49.130;9.218;2022-10-16T04:04:38;16.99;86.52
61351;DHT22;47119;49.130;9.218;2022-10-16T04:07:07;16.99;86.44
61351;DHT22;47119;49.130;9.218;2022-10-16T04:09:34;16.98;86.39
61351;DHT22;47119;49.130;9.218;2022-10-16T04:12:02;17.01;86.37
61351;DHT22;47119;49.130;9.218;2022-10-16T04:14:30;17.01;86.09
61351;DHT22;47119;49.130;9.218;2022-10-16T04:16:57;16.99;86.31
61351;DHT22;47119;49.130;9.218;2022-10-16T04:19:24;17.02;86.38
61351;DHT22;47119;49.130;9.218;2022-10-16T04:21:54;17.01;86.12
61351;DHT22;47119;49.130;9.218;2022-10-16T04:24:21;17.01;86.56
61351;DHT22;47119;49.130;9.218;2022-10-16T04:26:51;16.98;86.60
61351;DHT22;47119;49.130;9.218;2022-10-16T04:29:22;16.98;86.37
61351;DHT22;47119;49.130;9.218;2022-10-16T04:31:51;16.96;86.46
61351;DHT22;47119;49.130;9.218;2022-10-16T04:34:19;17.01;86.72
61351;DHT22;47119;49.130;9.218;2022-10-16T04:36:47;16.99;86.78
61351;DHT22;47119;49.130;9.218;2022-10-16T04:39:15;16.96;86.74
61351;DHT22;47119;49.130;9.218;2022-10-16T04:41:45;16.96;86.75
61351;DHT22;47119;49.130;9.218;2022-10-16T04:44:13;17.01;86.50
61351;DHT22;47119;49.130;9.218;2022-10-16T04:46:41;16.99;86.70
61351;DHT22;47119;49.130;9.218;2022-10-16T04:49:12;17.02;86.24
61351;DHT22;47119;49.130;9.218;2022-10-16T04:51:39;16.99;86.69
61351;DHT22;47119;49.130;9.218;2022-10-16T04:54:06;17.01;86.19
61351;DHT22;47119;49.130;9.218;2022-10-16T04:56:36;16.98;86.59
61351;DHT22;47119;49.130;9.218;2022-10-16T04:59:08;16.99;86.81
61351;DHT22;47119;49.130;9.218;2022-10-16T05:01:36;17.01;86.51
61351;DHT22;47119;49.130;9.218;2022-10-16T05:04:05;16.98;86.59
61351;DHT22;47119;49.130;9.218;2022-10-16T05:06:38;16.98;86.36
61351;DHT22;47119;49.130;9.218;2022-10-16T05:09:08;17.01;86.06
61351;DHT22;47119;49.130;9.218;2022-10-16T05:11:36;17.01;86.27
61351;DHT22;47119;49.130;9.218;2022-10-16T05:14:03;17.01;86.22
61351;DHT22;47119;49.130;9.218;2022-10-16T05:16:30;17.02;86.12
61351;DHT22;47119;49.130;9.218;2022-10-16T05:18:58;16.99;86.35
61351;DHT22;47119;49.130;9.218;2022-10-16T05:21:31;17.01;86.36
61351;DHT22;47119;49.130;9.218;2022-10-16T05:23:58;17.01;86.46
61351;DHT22;47119;49.130;9.218;2022-10-16T05:26:25;17.01;85.92
61351;DHT22;47119;49.130;9.218;2022-10-16T05:28:52;17.04;86.08
61351;DHT22;47119;49.130;9.218;2022-10-16T05:31:22;17.01;85.70
61351;DHT22;47119;49.130;9.218;2022-10-16T05:34:07;17.01;85.91
61351;DHT22;47119;49.130;9.218;2022-10-16T05:36:36;17.01;86.12
61351;DHT22;47119;49.130;9.218;2022-10-16T05:39:03;17.01;85.70
61351;DHT22;47119;49.130;9.218;2022-10-16T05:44:50;17.01;85.72
61351;DHT22;47119;49.130;9.218;2022-10-16T05:47:20;17.02;85.71
61351;DHT22;47119;49.130;9.218;2022-10-16T05:49:49;17.01;85.58
61351;DHT22;47119;49.130;9.218;2022-10-16T05:52:18;17.01;85.63
61351;DHT22;47119;49.130;9.218;2022-10-16T05:54:45;17.02;85.28
61351;DHT22;47119;49.130;9.218;2022-10-16T05:57:12;17.02;85.27
61351;DHT22;47119;49.130;9.218;2022-10-16T05:59:39;17.02;85.82
61351;DHT22;47119;49.130;9.218;2022-10-16T06:02:11;17.02;85.63
61351;DHT22;47119;49.130;9.218;2022-10-16T06:04:39;17.04;85.51
61351;DHT22;47119;49.130;9.218;2022-10-16T06:07:06;17.04;85.08
61351;DHT22;47119;49.130;9.218;2022-10-16T06:09:35;17.05;85.42
61351;DHT22;47119;49.130;9.218;2022-10-16T06:12:02;17.02;85.67
61351;DHT22;47119;49.130;9.218;2022-10-16T06:14:29;17.04;85.34
61351;DHT22;47119;49.130;9.218;2022-10-16T06:16:57;17.05;85.43
61351;DHT22;47119;49.130;9.218;2022-10-16T06:19:27;17.04;85.67
61351;DHT22;47119;49.130;9.218;2022-10-16T06:21:54;17.02;85.34
61351;DHT22;47119;49.130;9.218;2022-10-16T06:24:23;17.04;85.34
61351;DHT22;47119;49.130;9.218;2022-10-16T06:26:54;17.07;85.35
61351;DHT22;47119;49.130;9.218;2022-10-16T06:29:21;17.04;85.49
61351;DHT22;47119;49.130;9.218;2022-10-16T06:31:48;17.04;85.27
61351;DHT22;47119;49.130;9.218;2022-10-16T06:34:16;17.04;85.35
61351;DHT22;47119;49.130;9.218;2022-10-16T06:36:43;17.05;85.42
61351;DHT22;47119;49.130;9.218;2022-10-16T06:39:10;17.05;85.24
61351;DHT22;47119;49.130;9.218;2022-10-16T06:41:37;17.02;85.38
61351;DHT22;47119;49.130;9.218;2022-10-16T06:44:15;17.05;85.41
61351;DHT22;47119;49.130;9.218;2022-10-16T06:46:43;17.02;85.62
61351;DHT22;47119;49.130;9.218;2022-10-16T06:49:10;17.05;85.58
61351;DHT22;47119;49.130;9.218;2022-10-16T06:51:37;17.05;85.52
61351;DHT22;47119;49.130;9.218;2022-10-16T06:54:06;17.04;85.40
61351;DHT22;47119;49.130;9.218;2022-10-16T06:56:34;17.05;85.51
61351;DHT22;47119;49.130;9.218;2022-10-16T06:59:07;17.07;85.53
61351;DHT22;47119;49.130;9.218;2022-10-16T07:01:35;17.07;85.40
61351;DHT22;47119;49.130;9.218;2022-10-16T07:04:02;17.09;85.64
61351;DHT22;47119;49.130;9.218;2022-10-16T07:06:33;17.05;85.62
61351;DHT22;47119;49.130;9.218;2022-10-16T07:09:03;17.08;85.55
61351;DHT22;47119;49.130;9.218;2022-10-16T07:11:32;17.08;85.39
61351;DHT22;47119;49.130;9.218;2022-10-16T07:14:00;17.08;85.64
61351;DHT22;47119;49.130;9.218;2022-10-16T07:16:28;17.08;85.36
61351;DHT22;47119;49.130;9.218;2022-10-16T07:19:02;17.08;85.44
61351;DHT22;47119;49.130;9.218;2022-10-16T07:21:34;17.11;85.12
61351;DHT22;47119;49.130;9.218;2022-10-16T07:24:05;17.09;85.35
61351;DHT22;47119;49.130;9.218;2022-10-16T07:26:37;17.09;85.00
61351;DHT22;47119;49.130;9.218;2022-10-16T07:29:04;17.09;85.46
61351;DHT22;47119;49.130;9.218;2022-10-16T07:31:32;17.12;85.30
61351;DHT22;47119;49.130;9.218;2022-10-16T07:34:03;17.09;85.63
61351;DHT22;47119;49.130;9.218;2022-10-16T07:36:30;17.09;85.34
61351;DHT22;47119;49.130;9.218;2022-10-16T07:38:57;17.09;85.31
61351;DHT22;47119;49.130;9.218;2022-10-16T07:41:27;17.08;85.07
61351;DHT22;47119;49.130;9.218;2022-10-16T07:43:56;17.09;85.19
61351;DHT22;47119;49.130;9.218;2022-10-16T07:46:26;17.09;85.34
61351;DHT22;47119;49.130;9.218;2022-10-16T07:48:54;17.09;85.01
61351;DHT22;47119;49.130;9.218;2022-10-16T07:51:24;17.12;84.65
61351;DHT22;47119;49.130;9.218;2022-10-16T07:53:52;17.14;84.86
61351;DHT22;47119;49.130;9.218;2022-10-16T07:56:20;17.15;84.66
61351;DHT22;47119;49.130;9.218;2022-10-16T07:58:48;17.14;84.80
61351;DHT22;47119;49.130;9.218;2022-10-16T08:01:17;17.12;84.74
61351;DHT22;47119;49.130;9.218;2022-10-16T08:03:49;17.12;84.87
61351;DHT22;47119;49.130;9.218;2022-10-16T08:06:18;17.11;84.89
61351;DHT22;47119;49.130;9.218;2022-10-16T08:08:48;17.14;84.78
61351;DHT22;47119;49.130;9.218;2022-10-16T08:11:16;17.12;84.99
61351;DHT22;47119;49.130;9.218;2022-10-16T08:13:45;17.15;84.76
61351;DHT22;47119;49.130;9.218;2022-10-16T08:16:15;17.15;84.83
61351;DHT22;47119;49.130;9.218;2022-10-16T08:18:42;17.11;84.91
61351;DHT22;47119;49.130;9.218;2022-10-16T08:21:13;17.11;84.66
61351;DHT22;47119;49.130;9.218;2022-10-16T08:23:42;17.18;85.04
61351;DHT22;47119;49.130;9.218;2022-10-16T08:26:12;17.15;84.76
61351;DHT22;47119;49.130;9.218;2022-10-16T08:28:39;17.15;84.94
61351;DHT22;47119;49.130;9.218;2022-10-16T08:31:08;17.15;84.80
61351;DHT22;47119;49.130;9.218;2022-10-16T08:33:37;17.16;84.64
61351;DHT22;47119;49.130;9.218;2022-10-16T08:36:08;17.18;84.53
61351;DHT22;47119;49.130;9.218;2022-10-16T08:38:42;17.18;84.59
61351;DHT22;47119;49.130;9.218;2022-10-16T08:41:24;17.16;84.91
61351;DHT22;47119;49.130;9.218;2022-10-16T08:44:35;17.16;84.83
61351;DHT22;47119;49.130;9.218;2022-10-16T08:47:33;17.19;84.76
61351;DHT22;47119;49.130;9.218;2022-10-16T08:50:12;17.20;84.79
61351;DHT22;47119;49.130;9.218;2022-10-16T08:52:44;17.18;84.83
61351;DHT22;47119;49.130;9.218;2022-10-16T08:55:28;17.18;84.66
61351;DHT22;47119;49.130;9.218;2022-10-16T08:58:11;17.20;84.74
61351;DHT22;47119;49.130;9.218;2022-10-16T09:00:44;17.19;84.65
61351;DHT22;47119;49.130;9.218;2022-10-16T09:03:20;17.20;84.75
61351;DHT22;47119;49.130;9.218;2022-10-16T09:09:18;17.20;85.69
61351;DHT22;47119;49.130;9.218;2022-10-16T09:12:05;17.20;84.84
61351;DHT22;47119;49.130;9.218;2022-10-16T09:14:48;17.19;84.76
61351;DHT22;47119;49.130;9.218;2022-10-16T09:17:37;17.22;85.15
61351;DHT22;47119;49.130;9.218;2022-10-16T09:20:20;17.22;85.51
61351;DHT22;47119;49.130;9.218;2022-10-16T09:23:17;17.22;84.82
61351;DHT22;47119;49.130;9.218;2022-10-16T09:25:48;17.20;85.00
61351;DHT22;47119;49.130;9.218;2022-10-16T09:28:21;17.20;85.20
61351;DHT22;47119;49.130;9.218;2022-10-16T09:30:52;17.25;84.96
61351;DHT22;47119;49.130;9.218;2022-10-16T09:33:22;17.22;84.89
61351;DHT22;47119;49.130;9.218;2022-10-16T09:35:56;17.23;84.86
61351;DHT22;47119;49.130;9.218;2022-10-16T09:38:26;17.25;84.85
61351;DHT22;47119;49.130;9.218;2022-10-16T09:40:56;17.25;85.14
61351;DHT22;47119;49.130;9.218;2022-10-16T09:43:26;17.23;84.86
61351;DHT22;47119;49.130;9.218;2022-10-16T09:46:00;17.25;85.57
61351;DHT22;47119;49.130;9.218;2022-10-16T09:48:34;17.23;85.00
61351;DHT22;47119;49.130;9.218;2022-10-16T09:51:06;17.23;85.11
61351;DHT22;47119;49.130;9.218;2022-10-16T09:53:55;17.23;85.11
61351;DHT22;47119;49.130;9.218;2022-10-16T09:56:26;17.23;85.23
61351;DHT22;47119;49.130;9.218;2022-10-16T09:58:57;17.25;85.70
61351;DHT22;47119;49.130;9.218;2022-10-16T10:01:31;17.23;85.37
61351;DHT22;47119;49.130;9.218;2022-10-16T10:04:12;17.25;85.54
61351;DHT22;47119;49.130;9.218;2022-10-16T10:06:43;17.25;85.12
61351;DHT22;47119;49.130;9.218;2022-10-16T10:09:20;17.23;85.48
61351;DHT22;47119;49.130;9.218;2022-10-16T10:11:53;17.25;85.30
61351;DHT22;47119;49.130;9.218;2022-10-16T10:14:34;17.25;85.13
61351;DHT22;47119;49.130;9.218;2022-10-16T10:17:14;17.25;85.55
61351;DHT22;47119;49.130;9.218;2022-10-16T10:19:48;17.23;85.48
61351;DHT22;47119;49.130;9.218;2022-10-16T10:22:22;17.26;85.44
61351;DHT22;47119;49.130;9.218;2022-10-16T10:24:59;17.25;85.67
61351;DHT22;47119;49.130;9.218;2022-10-16T10:27:40;17.23;85.59
61351;DHT22;47119;49.130;9.218;2022-10-16T10:30:20;17.25;85.64
61351;DHT22;47119;49.130;9.218;2022-10-16T10:33:06;17.22;85.69
61351;DHT22;47119;49.130;9.218;2022-10-16T10:35:45;17.26;85.24
61351;DHT22;47119;49.130;9.218;2022-10-16T10:38:27;17.22;85.80
61351;DHT22;47119;49.130;9.218;2022-10-16T10:41:14;17.25;85.34
61351;DHT22;47119;49.130;9.218;2022-10-16T10:44:01;17.22;85.48
61351;DHT22;47119;49.130;9.218;2022-10-16T10:46:41;17.23;85.89
61351;DHT22;47119;49.130;9.218;2022-10-16T10:49:37;17.26;85.22
61351;DHT22;47119;49.130;9.218;2022-10-16T10:52:30;17.25;86.00
61351;DHT22;47119;49.130;9.218;2022-10-16T10:55:11;17.23;85.46
61351;DHT22;47119;49.130;9.218;2022-10-16T10:58:06;17.25;85.16
61351;DHT22;47119;49.130;9.218;2022-10-16T11:01:04;17.23;85.66
61351;DHT22;47119;49.130;9.218;2022-10-16T11:04:00;17.26;85.14
61351;DHT22;47119;49.130;9.218;2022-10-16T11:06:53;17.25;85.51
61351;DHT22;47119;49.130;9.218;2022-10-16T11:09:26;17.25;85.41
61351;DHT22;47119;49.130;9.218;2022-10-16T11:12:01;17.25;85.33
61351;DHT22;47119;49.130;9.218;2022-10-16T11:14:42;17.28;85.45
61351;DHT22;47119;49.130;9.218;2022-10-16T11:17:18;17.26;85.43
61351;DHT22;47119;49.130;9.218;2022-10-16T11:19:54;17.23;85.47
61351;DHT22;47119;49.130;9.218;2022-10-16T11:22:30;17.25;85.34
61351;DHT22;47119;49.130;9.218;2022-10-16T11:25:05;17.26;85.36
61351;DHT22;47119;49.130;9.218;2022-10-16T11:27:43;17.29;85.71
61351;DHT22;47119;49.130;9.218;2022-10-16T11:30:20;17.25;85.42
61351;DHT22;47119;49.130;9.218;2022-10-16T11:33:02;17.25;85.49
61351;DHT22;47119;49.130;9.218;2022-10-16T11:35:41;17.29;85.30
61351;DHT22;47119;49.130;9.218;2022-10-16T11:38:27;17.29;85.18
61351;DHT22;47119;49.130;9.218;2022-10-16T11:41:04;17.30;85.20
61351;DHT22;47119;49.130;9.218;2022-10-16T11:43:50;17.29;85.23
61351;DHT22;47119;49.130;9.218;2022-10-16T11:46:24;17.29;85.42
61351;DHT22;47119;49.130;9.218;2022-10-16T11:49:02;17.30;85.50
61351;DHT22;47119;49.130;9.218;2022-10-16T11:51:38;17.33;85.82
61351;DHT22;47119;49.130;9.218;2022-10-16T11:54:18;17.32;85.24
61351;DHT22;47119;49.130;9.218;2022-10-16T11:56:54;17.32;85.15
61351;DHT22;47119;49.130;9.218;2022-10-16T11:59:32;17.32;85.44
61351;DHT22;47119;49.130;9.218;2022-10-16T12:05:22;17.30;85.18
61351;DHT22;47119;49.130;9.218;2022-10-16T12:08:03;17.32;85.12
61351;DHT22;47119;49.130;9.218;2022-10-16T12:10:41;17.32;85.18
61351;DHT22;47119;49.130;9.218;2022-10-16T12:13:30;17.33;85.49
61351;DHT22;47119;49.130;9.218;2022-10-16T12:16:07;17.32;85.26
61351;DHT22;47119;49.130;9.218;2022-10-16T12:19:07;17.33;85.49
61351;DHT22;47119;49.130;9.218;2022-10-16T12:21:37;17.30;85.06
61351;DHT22;47119;49.130;9.218;2022-10-16T12:24:05;17.32;85.19
61351;DHT22;47119;49.130;9.218;2022-10-16T12:26:38;17.30;85.72
61351;DHT22;47119;49.130;9.218;2022-10-16T12:29:14;17.33;85.01
61351;DHT22;47119;49.130;9.218;2022-10-16T12:31:50;17.32;85.43
61351;DHT22;47119;49.130;9.218;2022-10-16T12:34:22;17.33;85.08
61351;DHT22;47119;49.130;9.218;2022-10-16T12:37:09;17.32;85.25
61351;DHT22;47119;49.130;9.218;2022-10-16T12:39:40;17.33;85.27
61351;DHT22;47119;49.130;9.218;2022-10-16T12:42:23;17.32;85.07
61351;DHT22;47119;49.130;9.218;2022-10-16T12:44:59;17.32;85.06
61351;DHT22;47119;49.130;9.218;2022-10-16T12:47:46;17.32;85.07
61351;DHT22;47119;49.130;9.218;2022-10-16T12:50:38;17.35;84.96
61351;DHT22;47119;49.130;9.218;2022-10-16T12:53:19;17.36;85.34
61351;DHT22;47119;49.130;9.218;2022-10-16T12:55:56;17.32;85.11
61351;DHT22;47119;49.130;9.218;2022-10-16T12:58:52;17.35;85.20
61351;DHT22;47119;49.130;9.218;2022-10-16T13:01:53;17.33;85.08
61351;DHT22;47119;49.130;9.218;2022-10-16T13:04:50;17.33;85.02
61351;DHT22;47119;49.130;9.218;2022-10-16T13:07:40;17.35;85.47
61351;DHT22;47119;49.130;9.218;2022-10-16T13:10:23;17.33;85.57
61351;DHT22;47119;49.130;9.218;2022-10-16T13:13:18;17.33;84.80
61351;DHT22;47119;49.130;9.218;2022-10-16T13:16:07;17.33;85.06
61351;DHT22;47119;49.130;9.218;2022-10-16T13:18:56;17.33;85.23
61351;DHT22;47119;49.130;9.218;2022-10-16T13:21:43;17.35;84.98
61351;DHT22;47119;49.130;9.218;2022-10-16T13:24:25;17.33;84.74
61351;DHT22;47119;49.130;9.218;2022-10-16T13:27:09;17.35;84.89
61351;DHT22;47119;49.130;9.218;2022-10-16T13:29:45;17.33;84.62
61351;DHT22;47119;49.130;9.218;2022-10-16T13:32:22;17.36;84.70
61351;DHT22;47119;49.130;9.218;2022-10-16T13:34:51;17.33;84.68
61351;DHT22;47119;49.130;9.218;2022-10-16T13:37:22;17.38;84.67
61351;DHT22;47119;49.130;9.218;2022-10-16T13:39:50;17.35;84.61
61351;DHT22;47119;49.130;9.218;2022-10-16T13:42:23;17.36;84.68
61351;DHT22;47119;49.130;9.218;2022-10-16T13:44:54;17.36;84.79
61351;DHT22;47119;49.130;9.218;2022-10-16T13:47:25;17.36;84.83
61351;DHT22;47119;49.130;9.218;2022-10-16T13:50:00;17.39;84.83
61351;DHT22;47119;49.130;9.218;2022-10-16T13:52:29;17.38;84.93
61351;DHT22;47119;49.130;9.218;2022-10-16T13:54:59;17.35;85.03
61351;DHT22;47119;49.130;9.218;2022-10-16T13:57:26;17.36;84.90
61351;DHT22;47119;49.130;9.218;2022-10-16T13:59:53;17.36;84.79
61351;DHT22;47119;49.130;9.218;2022-10-16T14:02:26;17.38;84.91
61351;DHT22;47119;49.130;9.218;2022-10-16T14:04:58;17.39;84.76
61351;DHT22;47119;49.130;9.218;2022-10-16T14:07:27;17.40;84.79
61351;DHT22;47119;49.130;9.218;2022-10-16T14:10:00;17.38;84.87
61351;DHT22;47119;49.130;9.218;2022-10-16T14:12:29;17.35;84.99
61351;DHT22;47119;49.130;9.218;2022-10-16T14:14:58;17.35;84.94
61351;DHT22;47119;49.130;9.218;2022-10-16T14:17:32;17.38;84.85
61351;DHT22;47119;49.130;9.218;2022-10-16T14:20:05;17.38;85.12
61351;DHT22;47119;49.130;9.218;2022-10-16T14:22:43;17.36;84.85
61351;DHT22;47119;49.130;9.218;2022-10-16T14:25:24;17.36;84.89
61351;DHT22;47119;49.130;9.218;2022-10-16T14:28:01;17.39;85.02
61351;DHT22;47119;49.130;9.218;2022-10-16T14:30:35;17.35;84.86
61351;DHT22;47119;49.130;9.218;2022-10-16T14:33:05;17.36;84.78
61351;DHT22;47119;49.130;9.218;2022-10-16T14:35:46;17.36;85.02
61351;DHT22;47119;49.130;9.218;2022-10-16T14:38:29;17.38;84.82
61351;DHT22;47119;49.130;9.218;2022-10-16T14:40:59;17.36;85.42
61351;DHT22;47119;49.130;9.218;2022-10-16T14:43:32;17.38;84.88
61351;DHT22;47119;49.130;9.218;2022-10-16T14:46:11;17.38;84.89
61351;DHT22;47119;49.130;9.218;2022-10-16T14:48:43;17.38;84.95
61351;DHT22;47119;49.130;9.218;2022-10-16T14:51:15;17.36;85.05
61351;DHT22;47119;49.130;9.218;2022-10-16T14:53:42;17.38;84.94
61351;DHT22;47119;49.130;9.218;2022-10-16T14:56:16;17.39;84.84
61351;DHT22;47119;49.130;9.218;2022-10-16T14:58:46;17.38;85.58
61351;DHT22;47119;49.130;9.218;2022-10-16T15:01:17;17.35;85.07
61351;DHT22;47119;49.130;9.218;2022-10-16T15:03:47;17.36;84.91
61351;DHT22;47119;49.130;9.218;2022-10-16T15:06:15;17.38;84.92
61351;DHT22;47119;49.130;9.218;2022-10-16T15:08:43;17.39;85.02
61351;DHT22;47119;49.130;9.218;2022-10-16T15:11:12;17.38;84.80
61351;DHT22;47119;49.130;9.218;2022-10-16T15:13:42;17.38;84.89
61351;DHT22;47119;49.130;9.218;2022-10-16T15:16:11;17.38;84.93
61351;DHT22;47119;49.130;9.218;2022-10-16T15:18:46;17.36;84.89
61351;DHT22;47119;49.130;9.218;2022-10-16T15:21:23;17.39;85.04
61351;DHT22;47119;49.130;9.218;2022-10-16T15:23:52;17.38;85.12
61351;DHT22;47119;49.130;9.218;2022-10-16T15:26:22;17.42;85.11
61351;DHT22;47119;49.130;9.218;2022-10-16T15:28:49;17.40;85.32
61351;DHT22;47119;49.130;9.218;2022-10-16T15:31:17;17.42;85.42
61351;DHT22;47119;49.130;9.218;2022-10-16T15:33:45;17.42;85.49
61351;DHT22;47119;49.130;9.218;2022-10-16T15:36:27;17.42;85.61
61351;DHT22;47119;49.130;9.218;2022-10-16T15:38:56;17.42;85.57
61351;DHT22;47119;49.130;9.218;2022-10-16T15:41:23;17.42;85.56
61351;DHT22;47119;49.130;9.218;2022-10-16T15:43:50;17.45;85.60
61351;DHT22;47119;49.130;9.218;2022-10-16T15:46:19;17.43;85.68
61351;DHT22;47119;49.130;9.218;2022-10-16T15:48:50;17.45;85.67
61351;DHT22;47119;49.130;9.218;2022-10-16T15:51:18;17.46;85.78
61351;DHT22;47119;49.130;9.218;2022-10-16T15:53:46;17.46;85.69
61351;DHT22;47119;49.130;9.218;2022-10-16T15:56:16;17.45;85.69
61351;DHT22;47119;49.130;9.218;2022-10-16T15:58:44;17.46;85.65
61351;DHT22;47119;49.130;9.218;2022-10-16T16:01:11;17.45;85.75
61351;DHT22;47119;49.130;9.218;2022-10-16T16:03:39;17.46;85.60
61351;DHT22;47119;49.130;9.218;2022-10-16T16:06:10;17.47;85.63
61351;DHT22;47119;49.130;9.218;2022-10-16T16:08:41;17.46;85.71
61351;DHT22;47119;49.130;9.218;2022-10-16T16:11:09;17.45;85.72
61351;DHT22;47119;49.130;9.218;2022-10-16T16:13:38;17.46;85.80
61351;DHT22;47119;49.130;9.218;2022-10-16T16:16:09;17.47;85.80
61351;DHT22;47119;49.130;9.218;2022-10-16T16:18:38;17.46;85.98